Time;durP1;ratioP1;P1;durP2;ratioP2;P2;SDS_P1;SDS_P2;PMS_P1;PMS_P2;Temp;Humidity;BMP_temperature;BMP_pressure;BME280_temperature;BME280_humidity;BME280_pressure;Samples;Min_cycle;Max_cycle;Signal;HPM_P1;HPM_P2
2021/12/13 00:00:58;;;;;;;;;1.33;1.33;;;;;18.00;66.94;102488.72;5071753;28;8926;-66
2021/12/13 00:03:55;;;;;;;;;2.00;2.00;;;;;17.94;66.85;102480.69;5072155;28;9745;-65
2021/12/13 00:06:29;;;;;;;;;1.00;1.00;;;;;17.84;66.73;102469.09;5071063;28;8871;-65
2021/12/13 00:08:59;;;;;;;;;1.67;1.67;;;;;17.96;66.98;102493.94;5071698;28;8851;-64
2021/12/13 00:11:31;;;;;;;;;1.00;1.00;;;;;17.91;66.64;102493.88;5071947;28;8948;-65
2021/12/13 00:14:00;;;;;;;;;3.67;2.67;;;;;17.96;66.78;102497.44;5070403;28;9036;-64
2021/12/13 00:16:33;;;;;;;;;2.00;1.00;;;;;17.96;66.54;102491.31;5071551;28;9100;-64
2021/12/13 00:19:03;;;;;;;;;1.00;1.00;;;;;17.97;66.93;102501.00;5070830;28;9005;-65
2021/12/13 00:21:37;;;;;;;;;1.67;1.67;;;;;17.99;66.86;102488.72;5071677;28;8859;-65
2021/12/13 00:24:12;;;;;;;;;1.67;1.67;;;;;17.97;66.90;102493.06;5071461;28;9013;-65
2021/12/13 00:26:46;;;;;;;;;2.00;1.00;;;;;17.97;66.64;102495.69;5071054;28;8853;-65
2021/12/13 00:29:18;;;;;;;;;1.50;1.50;;;;;17.98;66.84;102490.47;5071557;28;8945;-64
2021/12/13 00:31:57;;;;;;;;;1.00;1.00;;;;;17.99;66.53;102492.25;5071038;28;8783;-64
2021/12/13 00:34:43;;;;;;;;;2.33;2.33;;;;;17.97;66.61;102496.59;5070772;28;8891;-64
2021/12/13 00:37:16;;;;;;;;;1.00;1.00;;;;;17.98;66.33;102495.75;5071561;28;8854;-65
2021/12/13 00:39:53;;;;;;;;;2.00;1.00;;;;;17.97;66.76;102495.69;5070951;28;8930;-65
2021/12/13 00:42:25;;;;;;;;;1.67;1.67;;;;;17.97;66.60;102496.59;5071876;28;8856;-64
2021/12/13 00:44:55;;;;;;;;;1.33;1.00;;;;;17.98;66.46;102501.03;5070835;28;8882;-64
2021/12/13 00:47:27;;;;;;;;;2.00;2.00;;;;;17.96;66.32;102497.44;5070516;28;8930;-65
2021/12/13 00:50:21;;;;;;;;;2.00;2.00;;;;;17.98;66.67;102506.31;5071039;28;9568;-64
2021/12/13 00:52:49;;;;;;;;;2.00;1.00;;;;;17.98;66.20;102508.97;5070930;28;9005;-65
2021/12/13 00:55:18;;;;;;;;;1.00;1.00;;;;;17.97;66.24;102498.34;5070023;28;8929;-64
2021/12/13 00:58:04;;;;;;;;;3.67;2.00;;;;;17.95;66.09;102503.63;5071134;28;8913;-65
2021/12/13 01:00:42;;;;;;;;;2.00;2.00;;;;;17.93;66.42;102500.03;5071333;28;8937;-64
2021/12/13 01:03:21;;;;;;;;;2.33;1.00;;;;;17.95;66.54;102508.00;5070479;28;9199;-66
2021/12/13 01:06:31;;;;;;;;;2.00;2.00;;;;;17.96;66.30;102509.81;5070881;28;8863;-64
2021/12/13 01:09:19;;;;;;;;;1.00;1.00;;;;;17.95;66.34;102511.56;5069819;28;8865;-66
2021/12/13 01:11:54;;;;;;;;;1.00;0.67;;;;;17.96;66.34;102517.72;5070209;28;8933;-65
2021/12/13 01:14:42;;;;;;;;;0.67;0.67;;;;;17.98;66.18;102516.88;5071065;28;8913;-65
2021/12/13 01:17:38;;;;;;;;;0.67;0.67;;;;;17.95;66.10;102518.59;5069250;28;9006;-65
2021/12/13 01:20:23;;;;;;;;;1.00;1.00;;;;;17.96;66.38;102529.16;5070385;28;8956;-65
2021/12/13 01:22:56;;;;;;;;;1.00;1.00;;;;;17.94;66.35;102517.69;5070325;28;8861;-65
2021/12/13 01:25:39;;;;;;;;;0.67;0.67;;;;;17.96;66.15;102523.03;5070820;28;8867;-65
2021/12/13 01:28:11;;;;;;;;;1.33;1.33;;;;;17.96;65.91;102525.66;5070786;28;8846;-65
2021/12/13 01:30:42;;;;;;;;;1.00;1.00;;;;;17.97;66.00;102535.34;5074160;28;9785;-65
2021/12/13 01:33:11;;;;;;;;;0.33;0.33;;;;;17.95;66.01;102529.16;5075043;28;8969;-65
2021/12/13 01:35:41;;;;;;;;;1.00;1.00;;;;;17.96;65.96;102529.16;5074752;28;9023;-65
2021/12/13 01:38:34;;;;;;;;;0.00;0.00;;;;;17.95;66.17;102523.88;5074413;28;8855;-64
2021/12/13 01:41:08;;;;;;;;;1.00;1.00;;;;;17.96;65.86;102523.03;5068302;28;9699;-64
2021/12/13 01:43:35;;;;;;;;;1.00;1.00;;;;;17.91;65.88;102520.28;5074052;28;8998;-63
2021/12/13 01:46:00;;;;;;;;;0.33;0.33;;;;;17.97;66.03;102530.06;5074463;28;8999;-64
2021/12/13 01:48:30;;;;;;;;;0.00;0.00;;;;;17.98;66.25;102539.78;5074726;28;8855;-64
2021/12/13 01:51:05;;;;;;;;;0.50;0.50;;;;;17.97;65.95;102538.88;5073844;28;9561;-64
2021/12/13 01:53:48;;;;;;;;;2.00;2.00;;;;;17.94;65.77;102533.53;5074372;28;8823;-64
2021/12/13 01:59:52;;;;;;;;;0.00;0.00;;;;;17.96;65.95;102529.16;5073895;28;9112;-65
2021/12/13 02:02:17;;;;;;;;;0.25;0.25;;;;;17.95;65.73;102529.16;5067783;28;8933;-66
2021/12/13 02:04:54;;;;;;;;;0.00;0.00;;;;;17.98;65.65;102527.47;5073321;28;8763;-66
2021/12/13 02:07:23;;;;;;;;;2.00;1.00;;;;;17.97;65.99;102527.41;5074288;28;8776;-64
2021/12/13 02:09:49;;;;;;;;;1.00;1.00;;;;;17.98;65.63;102532.75;5073902;28;8998;-65
2021/12/13 02:12:22;;;;;;;;;1.00;1.00;;;;;17.96;65.54;102533.59;5073371;28;8925;-65
2021/12/13 02:16:56;;;;;;;;;2.00;0.67;;;;;17.96;65.74;102537.09;5073758;28;11431;-65
2021/12/13 02:17:42;;;;;;;;;0.00;0.00;;;;;17.96;65.72;102529.16;5073939;28;9009;-65
2021/12/13 02:20:25;;;;;;;;;0.33;0.33;;;;;17.93;65.92;102523.84;5073393;28;9039;-65
2021/12/13 02:22:54;;;;;;;;;0.00;0.00;;;;;17.96;65.77;102529.16;5073508;28;8965;-64
2021/12/13 02:25:30;;;;;;;;;1.00;1.00;;;;;17.94;65.64;102530.91;5073234;28;9825;-64
2021/12/13 02:28:02;;;;;;;;;1.00;0.00;;;;;17.96;65.79;102528.31;5073522;28;8854;-65
2021/12/13 02:30:45;;;;;;;;;0.00;0.00;;;;;17.95;65.83;102537.97;5073961;28;8873;-64
2021/12/13 02:33:19;;;;;;;;;0.00;0.00;;;;;17.86;65.85;102529.88;5052928;28;9880;-64
2021/12/13 02:35:51;;;;;;;;;0.00;0.00;;;;;17.94;65.87;102544.13;5053584;28;8945;-64
2021/12/13 02:38:20;;;;;;;;;0.00;0.00;;;;;17.91;65.65;102545.81;5053713;28;8876;-64
2021/12/13 02:40:46;;;;;;;;;1.00;0.00;;;;;17.88;65.70;102531.66;5052478;28;8923;-65
2021/12/13 02:43:18;;;;;;;;;0.33;0.33;;;;;17.93;65.88;102536.16;5053819;28;8764;-65
2021/12/13 02:45:48;;;;;;;;;0.00;0.00;;;;;17.94;65.74;102545.88;5053352;28;8854;-65
2021/12/13 02:48:20;;;;;;;;;1.00;1.00;;;;;17.95;65.49;102535.34;5052927;28;8777;-65
2021/12/13 02:50:52;;;;;;;;;1.25;1.25;;;;;17.90;65.41;102526.41;5053303;28;8796;-65
2021/12/13 02:53:23;;;;;;;;;1.00;0.00;;;;;17.92;65.66;102545.81;5053566;28;8796;-65
2021/12/13 02:55:48;;;;;;;;;1.75;0.25;;;;;17.93;65.57;102530.88;5052585;28;8796;-66
2021/12/13 02:58:17;;;;;;;;;1.00;1.00;;;;;17.96;65.36;102531.81;5053324;28;8787;-65
2021/12/13 03:01:05;;;;;;;;;0.00;0.00;;;;;17.94;65.86;102530.00;5052153;28;9711;-65
2021/12/13 03:03:35;;;;;;;;;0.00;0.00;;;;;17.96;65.33;102534.44;5052841;28;8816;-65
2021/12/13 03:06:04;;;;;;;;;1.00;0.25;;;;;17.94;65.46;102530.91;5052819;28;8800;-65
2021/12/13 03:08:44;;;;;;;;;1.00;1.00;;;;;17.92;65.38;102529.09;5052334;28;8861;-65
2021/12/13 03:11:22;;;;;;;;;0.00;0.00;;;;;17.96;65.25;102533.59;5053215;28;8854;-65
2021/12/13 03:14:12;;;;;;;;;0.33;0.33;;;;;17.95;65.15;102534.44;5052878;28;8964;-65
2021/12/13 03:17:06;;;;;;;;;0.75;0.75;;;;;17.96;65.27;102533.59;5052106;28;8854;-65
2021/12/13 03:19:40;;;;;;;;;1.25;0.25;;;;;17.96;65.19;102531.81;5053097;28;8772;-65
2021/12/13 03:22:17;;;;;;;;;1.00;0.00;;;;;17.94;65.28;102528.25;5052142;28;8886;-65
2021/12/13 03:24:49;;;;;;;;;1.33;1.00;;;;;17.91;65.44;102532.59;5052615;28;9050;-65
2021/12/13 03:28:12;;;;;;;;;1.00;1.00;;;;;17.92;65.39;102531.75;5052780;28;9633;-65
2021/12/13 03:30:55;;;;;;;;;0.50;0.00;;;;;17.97;65.01;102535.34;4951865;28;8886;-65
2021/12/13 03:33:29;;;;;;;;;0.25;0.25;;;;;17.92;65.24;102529.09;4951365;28;9663;-65
2021/12/13 03:35:59;;;;;;;;;1.00;1.00;;;;;17.96;65.44;102533.59;5027881;28;8918;-65
2021/12/13 03:38:28;;;;;;;;;0.67;0.67;;;;;17.95;65.42;102530.06;5052569;28;8772;-65
2021/12/13 03:41:00;;;;;;;;;1.00;1.00;;;;;17.90;65.45;102530.81;5052012;28;8878;-64
2021/12/13 03:43:31;;;;;;;;;0.67;0.67;;;;;17.95;65.31;102529.16;5051685;28;9622;-64
2021/12/13 03:46:02;;;;;;;;;1.00;1.00;;;;;17.92;65.14;102524.69;5052059;28;8882;-65
2021/12/13 03:48:28;;;;;;;;;1.00;1.00;;;;;17.88;65.30;102516.69;5052141;28;8958;-64
2021/12/13 03:50:58;;;;;;;;;1.00;1.00;;;;;17.87;65.09;102515.81;5051427;28;8780;-65
2021/12/13 03:53:31;;;;;;;;;1.00;1.00;;;;;17.96;65.03;102520.38;5050964;28;8879;-64
2021/12/13 03:56:09;;;;;;;;;1.00;1.00;;;;;17.88;65.07;102521.09;5051767;28;9527;-64
2021/12/13 03:58:51;;;;;;;;;1.00;1.00;;;;;17.92;65.15;102519.41;5051336;28;8847;-64
2021/12/13 04:01:26;;;;;;;;;1.75;1.75;;;;;17.93;65.08;102526.47;5052015;28;8785;-64
2021/12/13 04:03:55;;;;;;;;;1.00;1.00;;;;;17.92;65.05;102519.41;5051094;28;9519;-65
2021/12/13 04:06:25;;;;;;;;;0.25;0.25;;;;;17.92;65.09;102516.75;5052095;28;9551;-64
2021/12/13 04:08:56;;;;;;;;;1.00;1.00;;;;;17.92;64.87;102515.91;5051758;28;8808;-65
2021/12/13 04:11:24;;;;;;;;;1.00;1.00;;;;;17.93;65.08;102509.72;5051128;28;8882;-64
2021/12/13 04:13:57;;;;;;;;;1.25;1.25;;;;;17.95;64.90;102506.28;5051512;28;9007;-65
2021/12/13 04:16:34;;;;;;;;;2.00;2.00;;;;;17.92;65.16;102510.63;5051864;28;8798;-64
2021/12/13 04:19:13;;;;;;;;;2.00;1.00;;;;;17.93;65.28;102520.28;5050986;28;9026;-64
2021/12/13 04:21:59;;;;;;;;;0.67;0.67;;;;;17.94;65.22;102517.69;5051387;28;8942;-64
2021/12/13 04:24:35;;;;;;;;;1.67;1.67;;;;;17.95;64.94;102524.75;5051858;28;9054;-64
2021/12/13 04:27:20;;;;;;;;;1.00;1.00;;;;;17.91;65.05;102517.66;5050175;28;9681;-65
2021/12/13 04:29:47;;;;;;;;;1.00;1.00;;;;;17.92;65.03;102523.81;5051194;28;8926;-65
2021/12/13 04:32:20;;;;;;;;;1.00;1.00;;;;;17.94;64.84;102524.72;5062475;28;8992;-65
2021/12/13 04:34:50;;;;;;;;;2.00;2.00;;;;;17.87;64.73;102510.53;5071194;28;8894;-65
2021/12/13 04:37:20;;;;;;;;;1.67;1.67;;;;;17.91;64.86;102517.66;5071616;28;8919;-65
2021/12/13 04:39:51;;;;;;;;;2.00;2.00;;;;;17.90;64.89;102526.41;5070136;28;9014;-65
2021/12/13 04:42:20;;;;;;;;;1.00;1.00;;;;;17.91;64.76;102527.31;5071226;28;9123;-65
2021/12/13 04:45:07;;;;;;;;;2.00;2.00;;;;;17.92;65.09;102526.47;5070750;28;9052;-65
2021/12/13 04:47:47;;;;;;;;;2.00;2.00;;;;;17.91;64.91;102527.31;5070451;28;9048;-65
2021/12/13 04:50:27;;;;;;;;;1.67;1.67;;;;;17.88;65.01;102523.75;5071233;28;9018;-65
2021/12/13 04:52:54;;;;;;;;;1.00;1.00;;;;;17.88;64.79;102519.34;5070711;28;9010;-66
2021/12/13 04:55:30;;;;;;;;;1.00;1.00;;;;;17.93;64.65;102520.28;5070162;28;9221;-66
2021/12/13 04:58:02;;;;;;;;;1.00;1.00;;;;;17.87;64.95;102518.44;5070705;28;9018;-65
2021/12/13 05:00:33;;;;;;;;;2.33;2.00;;;;;17.88;64.64;102518.44;5070380;28;9025;-65
2021/12/13 05:03:02;;;;;;;;;1.00;1.00;;;;;17.92;64.68;102519.41;5070381;28;9008;-65
2021/12/13 05:05:29;;;;;;;;;1.33;1.33;;;;;17.93;64.83;102530.88;5070646;28;9000;-65
2021/12/13 05:07:55;;;;;;;;;2.00;2.00;;;;;17.75;64.73;102515.56;5069752;28;10150;-65
2021/12/13 05:10:25;;;;;;;;;1.00;1.00;;;;;17.89;64.98;102524.63;5071245;28;8859;-65
2021/12/13 05:13:09;;;;;;;;;2.00;2.00;;;;;17.90;65.01;102526.41;5070620;28;8818;-65
2021/12/13 05:15:38;;;;;;;;;1.00;1.00;;;;;17.90;64.62;102530.81;5070150;28;9873;-65
2021/12/13 05:18:09;;;;;;;;;3.00;2.00;;;;;17.88;64.54;102534.31;5071226;28;8786;-65
2021/12/13 05:20:39;;;;;;;;;2.00;2.00;;;;;17.93;64.93;102536.16;5070845;28;8934;-65
2021/12/13 05:23:18;;;;;;;;;2.00;2.00;;;;;17.88;64.69;102532.56;5070345;28;8999;-65
2021/12/13 05:25:52;;;;;;;;;2.00;2.00;;;;;17.89;64.88;102537.84;5070470;28;9046;-65
2021/12/13 05:28:28;;;;;;;;;1.67;1.33;;;;;17.89;64.89;102537.84;5070184;28;9020;-65
2021/12/13 05:31:01;;;;;;;;;1.33;1.33;;;;;17.88;64.82;102539.59;5070300;28;9002;-65
2021/12/13 05:33:31;;;;;;;;;1.00;1.00;;;;;17.90;64.62;102539.63;5069815;28;8972;-65
2021/12/13 05:36:01;;;;;;;;;2.00;2.00;;;;;17.92;64.53;102534.41;5069745;28;9660;-65
2021/12/13 05:38:33;;;;;;;;;2.00;1.00;;;;;17.89;64.71;102529.91;5070609;28;9005;-64
2021/12/13 05:41:02;;;;;;;;;3.00;2.00;;;;;17.90;64.73;102534.34;5070378;28;8933;-64
2021/12/13 05:43:35;;;;;;;;;1.67;1.67;;;;;17.90;64.55;102529.06;5070034;28;8937;-65
2021/12/13 05:46:30;;;;;;;;;2.00;2.00;;;;;17.91;64.54;102529.97;5070570;28;8999;-64
2021/12/13 05:49:00;;;;;;;;;2.00;2.00;;;;;17.86;64.41;102528.13;5069406;28;8848;-64
2021/12/13 05:51:42;;;;;;;;;1.00;1.00;;;;;17.89;64.40;102532.56;5069379;28;9136;-64
2021/12/13 05:54:13;;;;;;;;;3.33;2.33;;;;;17.90;64.58;102537.00;5070566;28;8952;-64
2021/12/13 05:56:51;;;;;;;;;2.00;2.00;;;;;17.90;64.69;102541.38;5069851;28;9114;-65
2021/12/13 05:59:30;;;;;;;;;1.67;1.67;;;;;17.87;64.49;102544.88;5070763;28;8863;-65
2021/12/13 06:02:01;;;;;;;;;2.00;2.00;;;;;17.88;64.63;102547.53;5070061;28;8925;-65
2021/12/13 06:04:29;;;;;;;;;2.00;2.00;;;;;17.88;64.44;102540.47;5069946;28;8944;-65
2021/12/13 06:06:58;;;;;;;;;2.00;2.00;;;;;17.87;64.33;102539.59;5070216;28;8956;-65
2021/12/13 06:09:51;;;;;;;;;1.33;1.33;;;;;17.88;64.30;102542.22;5070311;28;8956;-66
2021/12/13 06:12:26;;;;;;;;;2.00;1.00;;;;;17.90;64.46;102533.47;5069859;28;9003;-65
2021/12/13 06:14:53;;;;;;;;;2.00;2.00;;;;;17.90;64.39;102537.00;5070845;28;9233;-65
2021/12/13 06:17:32;;;;;;;;;2.00;2.00;;;;;17.91;64.39;102538.78;5074393;28;9094;-65
2021/12/13 06:19:59;;;;;;;;;2.33;2.33;;;;;17.88;64.46;102540.47;5074087;28;9069;-65
2021/12/13 06:22:28;;;;;;;;;3.67;3.67;;;;;17.85;64.53;102534.25;5073735;28;8996;-65
2021/12/13 06:25:00;;;;;;;;;1.00;1.00;;;;;17.90;64.11;102547.56;5073004;28;9197;-65
2021/12/13 06:27:29;;;;;;;;;2.00;1.00;;;;;17.89;64.25;102553.69;5073915;28;8951;-65
2021/12/13 06:30:19;;;;;;;;;2.33;2.33;;;;;17.87;64.08;102539.59;5073111;28;9905;-64
2021/12/13 06:32:50;;;;;;;;;2.00;2.00;;;;;17.91;64.11;102552.00;5072447;28;9314;-64
2021/12/13 06:35:35;;;;;;;;;2.00;2.00;;;;;17.90;64.38;102550.22;5073477;28;9118;-65
2021/12/13 06:38:20;;;;;;;;;2.00;2.00;;;;;17.90;64.31;102554.59;5073524;28;9223;-64
2021/12/13 06:40:50;;;;;;;;;3.00;3.00;;;;;17.90;63.98;102551.94;5072367;28;9190;-64
2021/12/13 06:43:32;;;;;;;;;3.33;2.33;;;;;17.90;64.44;102550.22;5072866;28;9190;-65
2021/12/13 06:46:06;;;;;;;;;1.00;0.33;;;;;17.90;64.06;102554.59;5072674;28;9259;-64
2021/12/13 06:48:41;;;;;;;;;1.00;1.00;;;;;17.91;63.87;102557.28;5073424;28;9037;-64
2021/12/13 06:51:14;;;;;;;;;2.33;2.33;;;;;17.87;64.09;102552.78;5073700;28;9167;-64
2021/12/13 06:53:57;;;;;;;;;2.00;2.00;;;;;17.86;64.15;102551.00;5072440;28;8914;-64
2021/12/13 06:56:26;;;;;;;;;1.67;1.67;;;;;17.84;64.26;102551.00;5073445;28;9178;-65
2021/12/13 06:58:58;;;;;;;;;2.00;2.00;;;;;17.90;64.31;102566.06;5072880;28;9113;-64
2021/12/13 07:01:25;;;;;;;;;2.00;2.00;;;;;17.91;64.25;102564.31;5072659;28;9266;-65
2021/12/13 07:03:55;;;;;;;;;3.00;3.00;;;;;17.86;64.27;102557.19;5071409;28;9197;-65
2021/12/13 07:06:21;;;;;;;;;4.67;4.00;;;;;17.95;64.52;102564.41;5072906;28;9239;-65
2021/12/13 07:08:59;;;;;;;;;4.67;4.00;;;;;17.96;65.11;102568.81;5071817;28;9243;-65
2021/12/13 07:11:36;;;;;;;;;5.67;5.67;;;;;17.97;65.53;102573.25;5072832;28;9482;-65
2021/12/13 07:14:09;;;;;;;;;4.67;4.67;;;;;17.99;65.80;102562.72;5071654;28;10106;-65
2021/12/13 07:16:40;;;;;;;;;3.50;1.75;;;;;18.03;66.94;102572.47;5072947;28;9321;-65
2021/12/13 07:19:18;;;;;;;;;4.00;3.67;;;;;18.06;66.39;102575.16;5072926;28;9498;-65
2021/12/13 07:21:49;;;;;;;;;4.00;4.00;;;;;18.08;67.44;102581.38;5071982;28;10105;-64
2021/12/13 07:24:30;;;;;;;;;7.00;5.67;;;;;18.10;67.70;102582.31;5072878;28;9245;-64
2021/12/13 07:27:07;;;;;;;;;6.33;5.67;;;;;18.12;68.53;102589.38;5071417;28;9310;-64
2021/12/13 07:29:41;;;;;;;;;5.50;5.00;;;;;18.11;69.67;102590.25;5071862;28;9366;-63
2021/12/13 07:32:20;;;;;;;;;8.00;8.00;;;;;18.11;69.74;102584.09;5064139;28;9472;-64
2021/12/13 07:35:03;;;;;;;;;6.33;6.33;;;;;18.09;69.85;102596.38;5068141;28;9203;-63
2021/12/13 07:37:51;;;;;;;;;6.00;6.00;;;;;18.08;70.20;102587.53;5071414;28;9324;-63
2021/12/13 07:40:54;;;;;;;;;8.50;6.50;;;;;18.08;69.68;102603.41;5071976;28;9166;-63
2021/12/13 07:43:26;;;;;;;;;4.00;4.00;;;;;18.09;70.44;102609.59;5071353;28;10161;-63
2021/12/13 07:46:16;;;;;;;;;5.50;5.25;;;;;18.04;70.40;102601.56;5071490;28;9328;-65
2021/12/13 07:48:41;;;;;;;;;7.25;6.50;;;;;18.07;69.92;102606.91;5071981;28;9476;-64
2021/12/13 07:51:12;;;;;;;;;6.00;4.00;;;;;18.07;70.05;102606.91;5071074;28;9540;-65
2021/12/13 07:53:53;;;;;;;;;4.00;4.00;;;;;18.05;69.91;102615.66;5071759;28;8897;-64
2021/12/13 07:56:45;;;;;;;;;7.50;5.00;;;;;18.01;69.85;102614.72;5071414;28;9539;-65
2021/12/13 07:59:33;;;;;;;;;6.33;6.33;;;;;18.05;69.96;102613.03;5071591;28;9527;-64
2021/12/13 08:02:18;;;;;;;;;4.00;4.00;;;;;18.06;69.96;102620.09;5069985;28;9254;-64
2021/12/13 08:04:49;;;;;;;;;6.33;5.00;;;;;18.05;70.13;102624.50;5070491;28;9265;-64
2021/12/13 08:07:18;;;;;;;;;4.00;4.00;;;;;18.04;69.51;102613.88;5071658;28;9322;-64
2021/12/13 08:10:08;;;;;;;;;8.00;8.00;;;;;17.99;69.33;102603.25;5071506;28;9197;-64
2021/12/13 08:12:40;;;;;;;;;6.75;6.75;;;;;18.05;69.52;102607.75;5090407;28;9368;-65
2021/12/13 08:15:24;;;;;;;;;6.00;5.00;;;;;18.03;69.85;102609.47;5091109;28;9445;-65
2021/12/13 08:18:24;;;;;;;;;6.00;5.67;;;;;18.04;69.39;102606.84;5090825;28;9442;-65
2021/12/13 08:20:54;;;;;;;;;5.67;5.67;;;;;18.06;69.67;102617.47;5072984;28;9267;-64
2021/12/13 08:23:27;;;;;;;;;5.00;5.00;;;;;18.04;69.40;102613.88;5091055;28;9380;-65
2021/12/13 08:25:58;;;;;;;;;6.33;5.33;;;;;18.01;69.24;102612.09;5090337;28;9319;-65
2021/12/13 08:28:51;;;;;;;;;7.75;7.00;;;;;18.04;68.96;102609.50;5091364;28;9303;-64
2021/12/13 08:31:27;;;;;;;;;5.25;5.25;;;;;18.03;69.04;102599.81;5081397;28;9432;-64
2021/12/13 08:34:00;;;;;;;;;6.33;6.00;;;;;18.04;69.06;102600.66;5070387;28;9496;-64
2021/12/13 08:36:47;;;;;;;;;5.00;4.67;;;;;18.03;69.07;102597.16;5071153;28;9454;-64
2021/12/13 08:39:19;;;;;;;;;7.00;7.00;;;;;18.02;69.22;102610.34;5069878;28;9328;-63
2021/12/13 08:41:49;;;;;;;;;6.00;6.00;;;;;18.02;69.12;102613.88;5070752;28;9405;-65
2021/12/13 08:44:27;;;;;;;;;4.33;4.00;;;;;18.02;69.01;102621.81;5070055;28;9238;-64
2021/12/13 08:47:06;;;;;;;;;7.00;5.00;;;;;18.03;68.80;102618.31;5062807;28;9282;-63
2021/12/13 08:49:37;;;;;;;;;6.25;6.25;;;;;18.02;68.72;102623.56;5047931;28;9322;-63
2021/12/13 08:52:34;;;;;;;;;7.00;6.75;;;;;18.03;68.48;102630.63;5050399;28;9495;-66
2021/12/13 08:55:12;;;;;;;;;6.67;4.67;;;;;18.03;68.46;102633.28;5050727;28;9453;-64
2021/12/13 08:58:07;;;;;;;;;5.00;5.00;;;;;18.03;68.36;102643.84;5050827;28;9113;-64
2021/12/13 09:00:44;;;;;;;;;5.00;4.00;;;;;18.04;68.40;102653.53;5025399;28;9230;-65
2021/12/13 09:03:20;;;;;;;;;5.67;5.00;;;;;18.02;68.08;102661.44;5050773;28;9011;-65
2021/12/13 09:06:10;;;;;;;;;5.00;4.00;;;;;18.03;68.39;102660.59;5050477;28;9020;-64
2021/12/13 09:08:50;;;;;;;;;4.67;4.67;;;;;18.03;68.40;102662.34;5048528;28;9216;-64
2021/12/13 09:11:19;;;;;;;;;6.00;5.00;;;;;18.03;68.35;102659.69;5049165;28;9413;-65
2021/12/13 09:13:50;;;;;;;;;4.00;4.00;;;;;18.04;68.27;102665.00;5049251;28;9416;-66
2021/12/13 09:16:20;;;;;;;;;7.00;5.67;;;;;18.04;68.10;102667.63;5050796;28;9160;-65
2021/12/13 09:19:05;;;;;;;;;5.00;5.00;;;;;18.04;68.41;102675.56;5050105;28;9332;-65
2021/12/13 09:21:30;;;;;;;;;6.00;5.00;;;;;18.02;68.27;102676.41;5050988;28;9339;-65
2021/12/13 09:23:59;;;;;;;;;5.00;4.67;;;;;18.05;68.30;102674.72;5070577;28;9251;-65
2021/12/13 09:26:27;;;;;;;;;5.33;5.33;;;;;18.07;68.01;102683.56;5070320;28;8778;-65
2021/12/13 09:29:04;;;;;;;;;5.33;5.33;;;;;18.04;68.30;102696.72;5063528;28;9282;-64
2021/12/13 09:31:36;;;;;;;;;5.00;4.00;;;;;18.06;68.16;102695.00;5048512;28;9305;-64
2021/12/13 09:34:22;;;;;;;;;6.00;6.00;;;;;18.05;67.97;102703.78;5049987;28;9341;-64
2021/12/13 09:36:51;;;;;;;;;5.33;5.33;;;;;18.05;68.25;102701.16;5033087;28;9345;-65
2021/12/13 09:39:28;;;;;;;;;4.33;4.33;;;;;18.03;68.01;102699.34;5053863;28;9471;-65
2021/12/13 09:42:16;;;;;;;;;5.33;4.33;;;;;18.01;68.25;102701.94;5029039;28;9432;-65
2021/12/13 09:45:01;;;;;;;;;8.00;7.00;;;;;18.05;68.01;102717.00;5029123;28;9277;-65
2021/12/13 09:47:40;;;;;;;;;3.33;3.33;;;;;18.06;67.81;102709.97;5030599;28;9278;-65
2021/12/13 09:50:19;;;;;;;;;5.33;5.33;;;;;18.04;67.68;102711.69;5043505;28;9241;-65
2021/12/13 09:52:49;;;;;;;;;5.67;5.00;;;;;18.07;67.64;102720.56;5066634;28;9169;-64
2021/12/13 09:55:35;;;;;;;;;5.33;5.33;;;;;18.08;67.73;102718.81;5071195;28;9227;-65
2021/12/13 09:58:04;;;;;;;;;4.00;3.67;;;;;18.08;67.45;102718.81;5058575;28;9867;-65
2021/12/13 10:00:53;;;;;;;;;4.00;4.00;;;;;18.07;67.51;102720.56;5054264;28;9046;-66
2021/12/13 10:03:26;;;;;;;;;5.67;5.00;;;;;18.05;67.61;102718.75;5053110;28;9111;-65
2021/12/13 10:05:56;;;;;;;;;4.00;4.00;;;;;18.03;67.25;102708.19;5054138;28;9213;-64
2021/12/13 10:08:30;;;;;;;;;3.33;3.33;;;;;18.08;67.30;102714.41;5053825;28;9134;-64
2021/12/13 10:11:01;;;;;;;;;4.33;4.00;;;;;18.03;67.14;102705.53;5051156;28;9027;-64
2021/12/13 10:13:33;;;;;;;;;5.00;4.00;;;;;18.10;67.36;102714.47;5054025;28;9052;-64
2021/12/13 10:16:07;;;;;;;;;3.00;3.00;;;;;18.07;67.23;102712.63;5053516;28;9060;-65
2021/12/13 10:18:36;;;;;;;;;6.00;5.00;;;;;18.08;67.52;102711.78;5052766;28;9117;-65
2021/12/13 10:21:28;;;;;;;;;5.00;5.00;;;;;18.10;67.01;102719.75;5051729;28;9282;-67
2021/12/13 10:24:00;;;;;;;;;4.00;4.00;;;;;18.12;67.28;102718.03;5051834;28;9130;-65
2021/12/13 10:26:35;;;;;;;;;7.00;4.00;;;;;18.20;67.04;102698.81;5052970;28;9185;-65
2021/12/13 10:29:06;;;;;;;;;4.00;4.00;;;;;18.22;67.06;102706.78;5053172;28;9082;-65
2021/12/13 10:31:53;;;;;;;;;5.33;4.33;;;;;18.18;66.75;102700.53;5035702;28;11535;-66
2021/12/13 10:34:26;;;;;;;;;3.00;3.00;;;;;18.17;66.79;102696.13;5053590;28;9119;-64
2021/12/13 10:37:02;;;;;;;;;6.00;5.00;;;;;18.19;67.04;102704.97;5057087;28;9110;-66
2021/12/13 10:39:35;;;;;;;;;3.67;3.67;;;;;18.18;66.94;102703.16;5062158;28;9929;-66
2021/12/13 10:42:08;;;;;;;;;4.67;4.67;;;;;18.18;66.87;102700.53;5053050;28;9167;-68
2021/12/13 10:44:35;;;;;;;;;4.67;4.67;;;;;18.16;66.71;102712.84;5053674;28;9267;-65
2021/12/13 10:47:08;;;;;;;;;4.00;4.00;;;;;18.18;66.68;102711.09;5052759;28;9263;-65
2021/12/13 10:49:37;;;;;;;;;4.33;4.00;;;;;18.17;66.72;102711.09;5050759;28;9374;-66
2021/12/13 10:52:09;;;;;;;;;4.67;4.67;;;;;18.19;66.64;102704.97;5052511;28;9254;-69
2021/12/13 10:54:46;;;;;;;;;7.00;5.67;;;;;18.21;66.48;102700.59;5052862;28;9268;-65
2021/12/13 10:57:21;;;;;;;;;4.67;4.67;;;;;18.19;66.47;102698.78;5053018;28;9297;-65
2021/12/13 10:59:49;;;;;;;;;5.67;4.67;;;;;18.14;66.44;102693.41;5050224;28;9286;-65
2021/12/13 11:02:19;;;;;;;;;5.33;4.67;;;;;18.18;66.30;102704.94;5053246;28;9262;-64
2021/12/13 11:04:53;;;;;;;;;4.00;4.00;;;;;18.17;66.58;102704.06;5051530;28;9237;-67
2021/12/13 11:07:19;;;;;;;;;5.50;5.50;;;;;18.17;66.71;102706.69;5052707;28;9244;-65
2021/12/13 11:09:46;;;;;;;;;5.00;5.00;;;;;18.18;66.35;102711.09;5050304;28;9431;-66
2021/12/13 11:12:20;;;;;;;;;5.33;5.00;;;;;18.07;66.17;102693.25;5054270;28;9537;-65
2021/12/13 11:14:49;;;;;;;;;7.00;6.25;;;;;18.18;66.56;102705.81;5071775;28;9383;-66
2021/12/13 11:17:20;;;;;;;;;4.67;4.67;;;;;18.18;66.14;102708.44;5072965;28;9320;-65
2021/12/13 11:19:49;;;;;;;;;4.00;3.67;;;;;18.15;66.36;102703.09;5055937;28;9120;-66
2021/12/13 11:22:20;;;;;;;;;5.00;5.00;;;;;18.20;66.45;102713.78;5051511;28;9409;-65
2021/12/13 11:24:52;;;;;;;;;5.33;5.33;;;;;18.17;66.19;102697.88;5051733;28;9254;-66
2021/12/13 11:27:21;;;;;;;;;5.33;5.33;;;;;18.20;66.00;102705.84;5052033;28;9253;-65
2021/12/13 11:29:51;;;;;;;;;4.00;4.00;;;;;18.15;65.89;102697.81;5052165;28;9235;-66
2021/12/13 11:32:34;;;;;;;;;5.00;5.00;;;;;18.19;66.13;102698.78;5053681;28;9305;-66
2021/12/13 11:35:15;;;;;;;;;5.33;5.33;;;;;18.19;66.11;102704.06;5071369;28;10203;-66
2021/12/13 11:38:17;;;;;;;;;4.67;4.67;;;;;18.19;65.93;102698.78;5071924;28;9317;-66
2021/12/13 11:40:52;;;;;;;;;6.00;6.00;;;;;18.18;66.22;102700.53;5041223;28;9267;-65
2021/12/13 11:43:34;;;;;;;;;6.33;6.33;;;;;18.18;65.84;102708.44;5071691;28;9406;-65
2021/12/13 11:46:29;;;;;;;;;4.33;4.33;;;;;18.14;65.94;102684.59;5072109;28;9359;-66
2021/12/13 11:49:33;;;;;;;;;9.67;6.33;;;;;18.17;65.98;102704.06;5070969;28;9227;-66
2021/12/13 11:52:10;;;;;;;;;6.67;6.67;;;;;18.19;65.80;102698.78;5071685;28;10058;-66
2021/12/13 11:55:04;;;;;;;;;7.00;7.00;;;;;18.18;65.87;102703.16;5070478;28;9366;-66
2021/12/13 11:57:42;;;;;;;;;5.33;5.33;;;;;18.17;65.81;102693.47;5032010;28;9395;-65
2021/12/13 12:00:41;;;;;;;;;5.00;5.00;;;;;18.16;66.10;102702.25;5031894;28;9395;-65
2021/12/13 12:03:43;;;;;;;;;5.00;5.00;;;;;18.17;65.74;102701.41;5031434;28;9331;-66
2021/12/13 12:06:51;;;;;;;;;5.33;4.67;;;;;18.17;65.70;102697.88;5031887;28;9323;-67
2021/12/13 12:09:47;;;;;;;;;7.00;6.33;;;;;18.16;65.63;102693.44;5019994;28;10010;-66
2021/12/13 12:12:43;;;;;;;;;5.00;5.00;;;;;18.17;65.78;102696.13;5033862;28;9189;-65
2021/12/13 12:15:09;;;;;;;;;4.67;3.67;;;;;18.16;65.79;102686.41;5051956;28;9140;-66
2021/12/13 12:17:35;;;;;;;;;5.25;5.25;;;;;18.15;66.01;102683.72;5048254;28;9195;-67
2021/12/13 12:20:08;;;;;;;;;6.50;5.25;;;;;18.19;65.75;102683.81;5064558;28;9383;-67